Time;durP1;ratioP1;P1;durP2;ratioP2;P2;SDS_P1;SDS_P2;PMS_P1;PMS_P2;Temp;Humidity;BMP_temperature;BMP_pressure;BME280_temperature;BME280_humidity;BME280_pressure;Samples;Min_cycle;Max_cycle;Signal;HPM_P1;HPM_P2
2023/09/16 00:01:11;;;;;;;1.80;1.70;;;15.70;99.90;;;;;;5091494;28;20251;-63
2023/09/16 00:03:36;;;;;;;2.47;2.37;;;15.70;99.90;;;;;;5091242;28;20196;-64
2023/09/16 00:06:04;;;;;;;1.80;1.70;;;15.70;99.90;;;;;;5091461;28;20713;-63
2023/09/16 00:08:33;;;;;;;2.00;1.80;;;15.70;99.90;;;;;;5091265;28;20175;-63
2023/09/16 00:11:00;;;;;;;2.67;2.47;;;15.50;99.90;;;;;;5091214;28;20484;-64
2023/09/16 00:13:27;;;;;;;2.53;1.40;;;15.30;99.90;;;;;;5094002;28;20502;-63
2023/09/16 00:15:53;;;;;;;3.30;2.30;;;15.40;99.90;;;;;;5095050;28;20505;-63
2023/09/16 00:18:19;;;;;;;3.63;3.17;;;15.30;99.90;;;;;;5095321;28;20933;-63
2023/09/16 00:20:49;;;;;;;2.80;2.60;;;15.40;99.90;;;;;;5095298;28;20454;-64
2023/09/16 00:23:15;;;;;;;3.80;1.67;;;15.50;99.90;;;;;;5095206;28;20418;-63
2023/09/16 00:25:42;;;;;;;1.50;1.40;;;15.50;99.90;;;;;;5094874;28;20430;-64
2023/09/16 00:28:07;;;;;;;2.23;2.13;;;15.50;99.90;;;;;;5095116;28;20494;-64
2023/09/16 00:30:35;;;;;;;3.07;2.27;;;15.30;99.90;;;;;;5094741;28;20544;-64
2023/09/16 00:33:03;;;;;;;2.70;2.53;;;15.40;99.90;;;;;;5095021;28;20292;-63
2023/09/16 00:35:29;;;;;;;3.27;2.13;;;15.40;99.90;;;;;;5094579;28;20425;-63
2023/09/16 00:37:55;;;;;;;2.53;1.67;;;15.40;99.90;;;;;;5094950;28;20887;-63
2023/09/16 00:40:20;;;;;;;2.73;1.53;;;15.40;99.90;;;;;;5094995;28;20417;-63
2023/09/16 00:42:46;;;;;;;1.67;1.57;;;15.40;99.90;;;;;;5094968;28;20175;-63
2023/09/16 00:45:12;;;;;;;1.67;1.27;;;15.40;99.90;;;;;;5094868;28;20184;-63
2023/09/16 00:47:40;;;;;;;1.60;1.50;;;15.40;99.90;;;;;;5094761;28;20160;-64
2023/09/16 00:50:07;;;;;;;2.20;2.00;;;15.40;99.90;;;;;;5094648;28;20436;-64
2023/09/16 00:52:40;;;;;;;4.13;2.37;;;15.40;99.90;;;;;;5094600;28;21029;-63
2023/09/16 00:55:06;;;;;;;1.77;1.67;;;15.40;99.90;;;;;;5094549;28;20470;-64
2023/09/16 00:57:32;;;;;;;7.77;1.50;;;15.40;99.90;;;;;;5094632;28;20489;-64
2023/09/16 00:59:58;;;;;;;1.73;1.33;;;15.40;99.90;;;;;;5094555;28;20393;-64
2023/09/16 01:02:26;;;;;;;2.13;1.57;;;15.40;99.90;;;;;;5094454;28;20409;-64
2023/09/16 01:04:51;;;;;;;2.17;2.07;;;15.30;99.90;;;;;;5094213;28;20511;-64
2023/09/16 01:07:17;;;;;;;2.73;2.53;;;15.10;99.90;;;;;;5094271;28;20411;-63
2023/09/16 01:09:43;;;;;;;2.63;1.53;;;15.00;99.90;;;;;;5094333;28;20646;-63
2023/09/16 01:12:10;;;;;;;2.20;2.10;;;14.90;99.90;;;;;;5094287;28;20454;-63
2023/09/16 01:14:37;;;;;;;2.97;1.63;;;15.00;99.90;;;;;;5094220;28;20220;-63
2023/09/16 01:17:05;;;;;;;1.67;1.50;;;15.00;99.90;;;;;;5093809;28;20418;-63
2023/09/16 01:19:44;;;;;;;2.07;1.97;;;15.20;99.90;;;;;;5094514;28;20455;-64
2023/09/16 01:22:11;;;;;;;1.93;1.83;;;15.30;99.90;;;;;;5094149;28;20464;-63
2023/09/16 01:24:36;;;;;;;2.10;1.67;;;15.40;99.90;;;;;;5093481;28;20459;-63
2023/09/16 01:27:02;;;;;;;1.70;1.60;;;15.50;99.90;;;;;;5093738;28;20482;-63
2023/09/16 01:29:28;;;;;;;2.23;2.00;;;15.40;99.90;;;;;;5094185;28;20169;-63
2023/09/16 01:32:01;;;;;;;3.40;1.50;;;15.50;99.90;;;;;;5093308;28;20442;-63
2023/09/16 01:34:37;;;;;;;2.10;2.00;;;15.50;99.90;;;;;;5094121;28;20831;-63
2023/09/16 01:37:06;;;;;;;2.17;1.57;;;15.60;99.90;;;;;;5093720;28;20403;-63
2023/09/16 01:39:32;;;;;;;3.17;2.20;;;15.50;99.90;;;;;;5093931;28;20416;-64
2023/09/16 01:42:00;;;;;;;2.97;1.70;;;15.50;99.90;;;;;;5093692;28;20490;-64
2023/09/16 01:44:26;;;;;;;2.43;2.23;;;15.40;99.90;;;;;;5093477;28;20500;-63
2023/09/16 01:46:55;;;;;;;2.60;2.00;;;15.40;99.90;;;;;;5093476;28;20786;-63
2023/09/16 01:49:21;;;;;;;1.33;1.23;;;15.30;99.90;;;;;;5093498;28;20416;-63
2023/09/16 01:51:46;;;;;;;1.20;1.10;;;15.20;99.90;;;;;;5093480;28;20545;-64
2023/09/16 01:54:12;;;;;;;1.53;1.43;;;15.30;99.90;;;;;;5093357;28;20275;-64
2023/09/16 01:56:37;;;;;;;1.70;1.60;;;15.20;99.90;;;;;;5093212;28;20258;-63
2023/09/16 01:59:03;;;;;;;1.20;1.10;;;15.20;99.90;;;;;;5093316;28;20171;-63
2023/09/16 02:01:29;;;;;;;1.63;1.43;;;15.30;99.90;;;;;;5093592;28;20203;-63
2023/09/16 02:03:55;;;;;;;1.90;1.70;;;15.30;99.90;;;;;;5091703;28;20215;-64
2023/09/16 02:06:21;;;;;;;1.80;1.70;;;15.30;99.90;;;;;;5093186;28;20183;-63
2023/09/16 02:08:47;;;;;;;2.40;1.30;;;15.30;99.90;;;;;;5075120;28;20451;-63
2023/09/16 02:11:12;;;;;;;2.63;2.03;;;15.20;99.90;;;;;;5072889;28;20857;-64
2023/09/16 02:13:38;;;;;;;2.00;1.80;;;15.20;99.90;;;;;;5072765;28;20169;-63
2023/09/16 02:16:04;;;;;;;2.40;1.60;;;15.20;99.90;;;;;;5071859;28;20169;-63
2023/09/16 02:18:30;;;;;;;1.43;1.30;;;15.20;99.90;;;;;;5072749;28;20583;-63
2023/09/16 02:20:55;;;;;;;1.87;1.63;;;15.30;99.90;;;;;;5072758;28;20420;-63
2023/09/16 02:23:22;;;;;;;1.80;1.70;;;15.20;99.90;;;;;;5072822;28;20253;-63
2023/09/16 02:25:47;;;;;;;1.43;1.33;;;15.20;99.90;;;;;;5072771;28;20188;-63
2023/09/16 02:28:13;;;;;;;1.67;1.57;;;15.20;99.90;;;;;;5072563;28;20414;-63
2023/09/16 02:30:39;;;;;;;2.10;2.00;;;15.20;99.90;;;;;;5072516;28;20541;-63
2023/09/16 02:33:05;;;;;;;1.17;1.00;;;15.20;99.90;;;;;;5072505;28;20418;-64
2023/09/16 02:35:30;;;;;;;1.33;1.23;;;15.30;99.90;;;;;;5071426;28;20189;-63
2023/09/16 02:37:58;;;;;;;1.20;1.20;;;15.30;99.90;;;;;;5072493;28;20175;-63
2023/09/16 02:40:24;;;;;;;1.87;1.77;;;15.30;99.90;;;;;;5072511;28;20267;-63
2023/09/16 02:42:50;;;;;;;1.80;1.70;;;15.30;99.90;;;;;;5072293;28;20928;-63
2023/09/16 02:45:16;;;;;;;2.77;2.50;;;15.40;99.90;;;;;;5072153;28;20239;-64
2023/09/16 02:47:41;;;;;;;2.90;2.10;;;15.50;99.90;;;;;;5072320;28;20259;-63
2023/09/16 02:50:07;;;;;;;5.00;1.63;;;15.60;99.90;;;;;;5072270;28;20768;-63
2023/09/16 02:52:33;;;;;;;2.43;1.60;;;15.60;99.90;;;;;;5072074;28;20201;-63
2023/09/16 02:54:59;;;;;;;2.90;2.70;;;15.70;99.90;;;;;;5071947;28;20981;-63
2023/09/16 02:57:24;;;;;;;2.50;1.77;;;15.60;99.90;;;;;;5071965;28;20651;-63
2023/09/16 02:59:52;;;;;;;3.20;2.27;;;15.60;99.90;;;;;;5072027;28;20170;-64
2023/09/16 03:02:17;;;;;;;2.70;1.83;;;15.60;99.90;;;;;;5072030;28;20772;-64
2023/09/16 03:04:43;;;;;;;2.30;1.80;;;15.50;99.90;;;;;;5071908;28;20530;-64
2023/09/16 03:07:10;;;;;;;1.70;1.03;;;15.60;99.90;;;;;;5072086;28;20189;-63
2023/09/16 03:09:36;;;;;;;1.60;1.50;;;15.70;99.90;;;;;;5072066;28;20168;-64
2023/09/16 03:12:01;;;;;;;2.00;1.80;;;15.80;99.90;;;;;;5071703;28;20465;-63
2023/09/16 03:14:27;;;;;;;1.77;1.53;;;15.90;99.90;;;;;;5071681;28;20245;-64
2023/09/16 03:16:55;;;;;;;2.97;1.57;;;15.90;99.90;;;;;;5071455;28;20180;-64
2023/09/16 03:19:21;;;;;;;1.90;1.33;;;15.90;99.90;;;;;;5071918;28;20194;-63
2023/09/16 03:21:47;;;;;;;1.70;1.63;;;16.00;99.90;;;;;;5071856;28;20777;-64
2023/09/16 03:24:13;;;;;;;1.40;1.30;;;15.90;99.90;;;;;;5071690;28;20489;-64
2023/09/16 03:26:42;;;;;;;2.30;2.20;;;15.80;99.90;;;;;;5071278;28;20701;-63
2023/09/16 03:29:09;;;;;;;2.40;1.43;;;15.80;99.90;;;;;;5071604;28;20204;-64
2023/09/16 03:31:35;;;;;;;1.70;1.27;;;15.80;99.90;;;;;;5071681;28;20462;-63
2023/09/16 03:34:00;;;;;;;2.50;1.10;;;15.60;99.90;;;;;;5071561;28;20510;-63
2023/09/16 03:36:26;;;;;;;1.60;1.50;;;15.60;99.90;;;;;;5071298;28;20164;-63
2023/09/16 03:38:52;;;;;;;1.47;1.37;;;15.60;99.90;;;;;;5071403;28;20173;-64
2023/09/16 03:41:17;;;;;;;2.23;2.03;;;15.70;99.90;;;;;;5071501;28;20253;-63
2023/09/16 03:43:43;;;;;;;1.67;1.50;;;15.80;99.90;;;;;;5071438;28;20173;-63
2023/09/16 03:46:09;;;;;;;1.27;1.17;;;15.80;99.90;;;;;;5071472;28;20427;-63
2023/09/16 03:48:35;;;;;;;1.40;1.30;;;15.90;99.90;;;;;;5071492;28;20402;-63
2023/09/16 03:51:06;;;;;;;2.73;1.77;;;15.80;99.90;;;;;;5071354;28;20502;-63
2023/09/16 03:53:32;;;;;;;1.57;1.00;;;15.90;99.90;;;;;;5071312;28;20544;-64
2023/09/16 03:55:58;;;;;;;1.40;1.30;;;15.90;99.90;;;;;;5071273;28;20430;-63
2023/09/16 03:58:23;;;;;;;1.07;0.97;;;15.80;99.90;;;;;;5071297;28;20399;-63
2023/09/16 04:00:49;;;;;;;32.47;1.77;;;15.80;99.90;;;;;;5071336;28;20212;-63
2023/09/16 04:03:14;;;;;;;1.50;1.07;;;15.80;99.90;;;;;;5071319;28;20169;-63
2023/09/16 04:05:40;;;;;;;0.80;0.80;;;15.80;99.90;;;;;;5070854;28;20619;-64
2023/09/16 04:08:06;;;;;;;1.00;1.00;;;15.90;99.90;;;;;;5086179;28;20175;-64
2023/09/16 04:10:31;;;;;;;1.33;1.23;;;15.90;99.90;;;;;;5091642;28;20229;-63
2023/09/16 04:12:57;;;;;;;0.63;0.63;;;15.90;99.90;;;;;;5091418;28;20192;-63
2023/09/16 04:15:23;;;;;;;1.47;1.37;;;15.90;99.90;;;;;;5091048;28;20203;-63
2023/09/16 04:17:51;;;;;;;1.10;0.97;;;15.80;99.90;;;;;;5091448;28;20169;-64
2023/09/16 04:20:18;;;;;;;1.53;1.40;;;15.60;99.90;;;;;;5091390;28;20693;-63
2023/09/16 04:22:44;;;;;;;1.23;1.03;;;15.50;99.90;;;;;;5091237;28;20402;-63
2023/09/16 04:25:10;;;;;;;1.23;1.10;;;15.50;99.90;;;;;;5090980;28;20422;-63
2023/09/16 04:27:36;;;;;;;0.87;0.87;;;15.50;99.90;;;;;;5091401;28;20484;-63
2023/09/16 04:30:03;;;;;;;1.03;0.93;;;15.60;99.90;;;;;;5090905;28;20181;-63
2023/09/16 04:32:28;;;;;;;0.87;0.87;;;15.70;99.90;;;;;;5090608;28;20208;-63
2023/09/16 04:34:57;;;;;;;0.80;0.80;;;15.70;99.90;;;;;;5090877;28;20789;-64
2023/09/16 04:37:23;;;;;;;1.40;0.70;;;15.70;99.90;;;;;;5090849;28;20176;-63
2023/09/16 04:39:48;;;;;;;1.00;0.90;;;15.60;99.90;;;;;;5091152;28;20407;-63
2023/09/16 04:42:14;;;;;;;1.57;1.47;;;15.50;99.90;;;;;;5091127;28;20172;-64
2023/09/16 04:44:40;;;;;;;1.13;0.97;;;15.50;99.90;;;;;;5091171;28;20200;-63
2023/09/16 04:47:10;;;;;;;1.17;1.07;;;15.40;99.90;;;;;;5090841;28;20181;-63
2023/09/16 04:49:35;;;;;;;1.37;1.30;;;15.40;99.90;;;;;;5091167;28;20715;-63
2023/09/16 04:52:03;;;;;;;1.30;1.20;;;15.30;99.90;;;;;;5090952;28;20443;-63
2023/09/16 04:54:31;;;;;;;1.77;1.67;;;15.30;99.90;;;;;;5090990;28;20196;-63
2023/09/16 04:56:57;;;;;;;1.80;0.77;;;15.30;99.90;;;;;;5090680;28;20930;-64
2023/09/16 04:59:23;;;;;;;0.60;0.60;;;15.30;99.90;;;;;;5093461;28;20425;-63
2023/09/16 05:01:51;;;;;;;1.73;1.43;;;15.30;99.90;;;;;;5094691;28;20415;-64
2023/09/16 05:04:17;;;;;;;1.40;1.30;;;15.40;99.90;;;;;;5140561;22;20202;-64
2023/09/16 05:06:42;;;;;;;1.77;1.27;;;15.40;99.90;;;;;;5072343;28;20477;-64
2023/09/16 05:09:08;;;;;;;1.70;1.60;;;15.50;99.90;;;;;;5074232;28;20221;-64
2023/09/16 05:11:33;;;;;;;2.30;1.80;;;15.50;99.90;;;;;;5073939;28;20201;-64
2023/09/16 05:13:59;;;;;;;1.37;1.30;;;15.60;99.90;;;;;;5074061;28;20172;-64
2023/09/16 05:16:25;;;;;;;1.20;1.00;;;15.60;99.90;;;;;;5073648;28;20162;-64
2023/09/16 05:18:50;;;;;;;1.03;0.80;;;15.50;99.90;;;;;;5074082;28;20195;-64
2023/09/16 05:21:16;;;;;;;0.80;0.80;;;15.40;99.90;;;;;;5074139;28;20191;-63
2023/09/16 05:23:41;;;;;;;1.07;1.07;;;15.30;99.90;;;;;;5073800;28;20170;-64
2023/09/16 05:26:09;;;;;;;1.80;1.70;;;15.20;99.90;;;;;;5073446;28;20686;-64
2023/09/16 05:28:34;;;;;;;1.53;1.17;;;15.20;99.90;;;;;;5074074;28;20221;-64
2023/09/16 05:31:01;;;;;;;1.00;1.00;;;15.30;99.90;;;;;;5073834;28;20443;-64
2023/09/16 05:33:26;;;;;;;1.73;1.63;;;15.40;99.90;;;;;;5073813;28;20636;-64
2023/09/16 05:35:52;;;;;;;1.03;0.90;;;15.40;99.90;;;;;;5073544;28;20427;-63
2023/09/16 05:38:18;;;;;;;1.30;1.20;;;15.50;99.90;;;;;;5073925;28;20162;-64
2023/09/16 05:40:43;;;;;;;0.97;0.97;;;15.50;99.90;;;;;;5073743;28;20403;-63
2023/09/16 05:43:09;;;;;;;5.63;1.00;;;15.40;99.90;;;;;;5073459;28;20249;-63
2023/09/16 05:45:36;;;;;;;2.63;0.90;;;15.50;99.90;;;;;;5072945;28;20674;-64
2023/09/16 05:48:03;;;;;;;0.90;0.90;;;15.50;99.90;;;;;;5073451;28;20238;-64
2023/09/16 05:50:31;;;;;;;1.07;0.90;;;15.50;99.90;;;;;;5073501;28;20427;-64
2023/09/16 05:52:57;;;;;;;1.30;1.20;;;15.50;99.90;;;;;;5073271;28;20420;-64
2023/09/16 05:55:22;;;;;;;1.50;1.40;;;15.50;99.90;;;;;;5073182;28;20429;-64
2023/09/16 05:57:49;;;;;;;2.30;1.47;;;15.50;99.90;;;;;;5073467;28;20205;-64
2023/09/16 06:00:15;;;;;;;1.47;1.37;;;15.40;99.90;;;;;;5072960;28;20667;-64
2023/09/16 06:02:40;;;;;;;1.60;0.83;;;15.40;99.90;;;;;;5073177;28;20407;-64
2023/09/16 06:05:08;;;;;;;1.90;1.80;;;15.50;99.90;;;;;;5072294;28;20492;-64
2023/09/16 06:07:35;;;;;;;1.60;1.50;;;15.70;99.90;;;;;;5073102;28;20201;-64
2023/09/16 06:10:01;;;;;;;1.37;1.27;;;15.70;99.90;;;;;;5073220;28;20416;-62
2023/09/16 06:12:26;;;;;;;0.87;0.77;;;15.80;99.90;;;;;;5073117;28;20512;-64
2023/09/16 06:14:52;;;;;;;1.57;1.47;;;15.80;99.90;;;;;;5072866;28;20272;-64
2023/09/16 06:17:19;;;;;;;1.30;1.20;;;15.80;99.90;;;;;;5072726;28;20177;-64
2023/09/16 06:19:45;;;;;;;1.20;1.20;;;15.60;99.90;;;;;;5072271;28;20231;-63
2023/09/16 06:22:13;;;;;;;1.10;1.10;;;15.70;99.90;;;;;;5072964;28;20419;-63
2023/09/16 06:24:41;;;;;;;0.97;0.97;;;15.80;99.90;;;;;;5071492;28;20429;-63
2023/09/16 06:27:07;;;;;;;1.90;1.80;;;16.00;99.90;;;;;;5072179;28;20488;-63
2023/09/16 06:29:32;;;;;;;1.10;1.10;;;16.10;99.90;;;;;;5072608;28;20557;-64
2023/09/16 06:31:58;;;;;;;1.33;0.93;;;16.30;99.90;;;;;;5072304;28;20562;-63
2023/09/16 06:34:24;;;;;;;2.13;1.90;;;16.50;99.90;;;;;;5072611;28;20198;-63
2023/09/16 06:36:49;;;;;;;3.33;1.63;;;16.70;99.90;;;;;;5072420;28;20547;-63
2023/09/16 06:39:15;;;;;;;1.73;1.63;;;16.90;99.90;;;;;;5072573;28;20169;-63
2023/09/16 06:41:41;;;;;;;2.00;1.80;;;16.90;99.90;;;;;;5072539;28;20220;-63
2023/09/16 06:44:06;;;;;;;1.70;1.60;;;17.10;99.90;;;;;;5072543;28;20640;-63
2023/09/16 06:46:32;;;;;;;1.97;1.83;;;17.20;99.90;;;;;;5071519;28;20600;-63
2023/09/16 06:48:57;;;;;;;2.40;1.30;;;17.50;99.90;;;;;;5072526;28;20189;-64
2023/09/16 06:51:23;;;;;;;1.67;1.53;;;17.70;99.90;;;;;;5072380;28;20194;-63
2023/09/16 06:53:49;;;;;;;1.90;1.47;;;18.10;99.90;;;;;;5072348;28;20181;-63
2023/09/16 06:56:15;;;;;;;2.03;1.93;;;18.50;99.90;;;;;;5071889;28;20838;-63
2023/09/16 06:58:40;;;;;;;1.33;1.13;;;19.20;99.90;;;;;;5072327;28;20173;-63
2023/09/16 07:01:09;;;;;;;2.10;1.97;;;19.80;99.90;;;;;;5072105;28;20178;-63
2023/09/16 07:03:35;;;;;;;1.50;1.40;;;20.60;99.90;;;;;;5072390;28;20173;-64
2023/09/16 07:06:01;;;;;;;1.60;1.23;;;21.50;99.90;;;;;;5071659;28;20449;-63
2023/09/16 07:08:27;;;;;;;1.77;1.63;;;22.40;98.00;;;;;;5072143;28;20518;-63
2023/09/16 07:10:54;;;;;;;2.20;1.67;;;23.30;96.50;;;;;;5072001;28;20206;-64
2023/09/16 07:13:19;;;;;;;1.20;1.20;;;24.10;94.90;;;;;;5072023;28;20804;-64
2023/09/16 07:15:55;;;;;;;1.60;1.50;;;25.20;94.00;;;;;;5071485;28;20446;-64
2023/09/16 07:18:21;;;;;;;1.30;1.20;;;26.70;92.50;;;;;;5072123;28;20189;-64
2023/09/16 07:20:47;;;;;;;2.40;1.73;;;28.40;90.00;;;;;;5071556;28;20782;-64
2023/09/16 07:23:13;;;;;;;1.33;1.23;;;30.00;81.80;;;;;;5071812;28;20419;-64
2023/09/16 07:25:38;;;;;;;1.50;1.40;;;31.80;72.80;;;;;;5071646;28;20436;-65
2023/09/16 07:28:04;;;;;;;1.93;1.70;;;32.40;66.70;;;;;;5071720;28;20658;-64
2023/09/16 07:30:33;;;;;;;1.43;1.33;;;32.10;65.90;;;;;;5072067;28;20231;-64
2023/09/16 07:32:58;;;;;;;1.20;1.10;;;31.40;66.50;;;;;;5071744;28;20197;-65
2023/09/16 07:35:24;;;;;;;1.33;0.80;;;30.80;65.80;;;;;;5071436;28;20569;-64
2023/09/16 07:37:51;;;;;;;2.20;2.00;;;30.20;65.60;;;;;;5071759;28;20174;-64
2023/09/16 07:40:17;;;;;;;2.93;1.70;;;29.60;67.50;;;;;;5071768;28;20704;-64
2023/09/16 07:42:42;;;;;;;1.53;1.43;;;28.90;69.20;;;;;;5071624;28;20924;-64
2023/09/16 07:45:08;;;;;;;1.83;1.60;;;28.20;70.70;;;;;;5071290;28;20511;-64
2023/09/16 07:47:35;;;;;;;1.97;1.60;;;27.50;73.90;;;;;;5071619;28;20188;-64
2023/09/16 07:50:01;;;;;;;2.27;1.40;;;26.90;76.70;;;;;;5071653;28;20859;-64
2023/09/16 07:52:27;;;;;;;1.03;0.93;;;26.40;79.40;;;;;;5071472;28;20447;-64
2023/09/16 07:54:56;;;;;;;2.70;1.60;;;25.90;81.10;;;;;;5071410;28;20443;-63
2023/09/16 07:57:21;;;;;;;1.63;1.53;;;25.60;82.00;;;;;;5071180;28;20422;-64
2023/09/16 07:59:47;;;;;;;3.17;1.70;;;25.40;84.70;;;;;;5071516;28;20407;-63
2023/09/16 08:02:12;;;;;;;1.70;1.60;;;25.30;86.00;;;;;;5071445;28;20170;-64
2023/09/16 08:04:38;;;;;;;1.90;1.30;;;25.10;87.30;;;;;;5071281;28;20220;-64
2023/09/16 08:07:04;;;;;;;2.00;1.73;;;25.00;87.70;;;;;;5071112;28;20181;-64
2023/09/16 08:09:29;;;;;;;1.57;1.20;;;24.90;88.40;;;;;;5071381;28;20180;-64
2023/09/16 08:11:55;;;;;;;1.70;1.60;;;24.80;90.00;;;;;;5071241;28;20205;-63
2023/09/16 08:14:21;;;;;;;1.23;1.13;;;24.80;90.90;;;;;;5071193;28;20627;-63
2023/09/16 08:16:46;;;;;;;2.10;1.83;;;24.70;90.80;;;;;;5070983;28;20173;-65
2023/09/16 08:19:12;;;;;;;1.60;1.50;;;24.80;90.50;;;;;;5071318;28;20248;-64
2023/09/16 08:21:37;;;;;;;1.70;1.60;;;24.80;90.90;;;;;;5071319;28;20714;-65
2023/09/16 08:24:03;;;;;;;2.80;1.77;;;24.80;90.70;;;;;;5071184;28;20178;-65
2023/09/16 08:26:29;;;;;;;2.20;1.70;;;24.70;91.00;;;;;;5070872;28;20311;-64
2023/09/16 08:28:54;;;;;;;1.47;1.37;;;24.60;91.00;;;;;;5071416;28;20208;-64
2023/09/16 08:31:20;;;;;;;1.70;1.60;;;24.70;91.60;;;;;;5071222;28;20731;-64
2023/09/16 08:33:48;;;;;;;1.87;1.70;;;24.80;91.60;;;;;;5072716;28;20631;-63
2023/09/16 08:36:14;;;;;;;2.87;2.53;;;25.00;91.20;;;;;;5074573;28;20590;-64
2023/09/16 08:38:40;;;;;;;3.00;2.70;;;25.00;90.90;;;;;;5075031;28;20389;-63
2023/09/16 08:41:31;;;;;;;4.00;3.67;;;25.10;91.20;;;;;;5074868;28;20212;-64
2023/09/16 08:44:00;;;;;;;2.77;2.17;;;25.20;91.40;;;;;;5075139;28;20252;-64
2023/09/16 08:46:29;;;;;;;3.03;1.90;;;25.20;91.80;;;;;;5074649;28;20410;-64
2023/09/16 08:48:56;;;;;;;1.47;1.37;;;25.10;91.80;;;;;;5074800;28;20434;-63
2023/09/16 08:51:23;;;;;;;2.03;1.37;;;25.00;92.10;;;;;;5074559;28;20465;-64
2023/09/16 08:53:51;;;;;;;1.50;1.40;;;24.90;92.30;;;;;;5074413;28;20423;-64
2023/09/16 08:56:18;;;;;;;1.37;1.27;;;24.80;92.50;;;;;;5074283;28;20552;-64
2023/09/16 08:58:44;;;;;;;1.40;1.30;;;24.80;92.60;;;;;;5073747;28;20460;-63
2023/09/16 09:01:11;;;;;;;1.30;1.00;;;24.60;93.70;;;;;;5074525;28;20455;-63
2023/09/16 09:03:37;;;;;;;4.00;2.50;;;24.30;94.20;;;;;;5074180;28;20403;-64
2023/09/16 09:06:05;;;;;;;3.60;3.30;;;24.10;94.40;;;;;;5073908;28;20454;-64
2023/09/16 09:08:33;;;;;;;3.70;3.00;;;24.00;94.60;;;;;;5074333;28;20404;-64
2023/09/16 09:10:59;;;;;;;2.00;1.80;;;24.00;95.10;;;;;;5074335;28;20480;-64
2023/09/16 09:13:27;;;;;;;3.33;2.43;;;24.10;95.00;;;;;;5074226;28;20503;-64
2023/09/16 09:15:59;;;;;;;12.13;7.70;;;24.10;95.10;;;;;;5073955;28;20677;-63
2023/09/16 09:18:25;;;;;;;5.37;4.73;;;23.70;95.10;;;;;;5074312;28;20374;-64
2023/09/16 09:20:51;;;;;;;5.33;3.43;;;23.20;96.40;;;;;;5074038;28;20381;-64
2023/09/16 09:23:17;;;;;;;2.50;2.13;;;23.10;97.40;;;;;;5074345;28;20203;-64
2023/09/16 09:25:42;;;;;;;3.30;2.90;;;23.00;97.30;;;;;;5073664;28;20414;-64
2023/09/16 09:28:08;;;;;;;1.50;1.40;;;22.90;97.50;;;;;;5074055;28;20184;-63
2023/09/16 09:30:34;;;;;;;1.40;1.30;;;22.90;97.40;;;;;;5073529;28;20193;-64
2023/09/16 09:33:00;;;;;;;1.00;0.90;;;22.90;97.20;;;;;;5074010;28;20421;-63
2023/09/16 09:35:30;;;;;;;1.37;1.27;;;23.00;97.00;;;;;;5073517;28;20201;-64
2023/09/16 09:37:57;;;;;;;3.30;1.73;;;23.20;97.20;;;;;;5074055;28;20408;-63
2023/09/16 09:40:24;;;;;;;1.53;1.33;;;23.50;96.80;;;;;;5073694;28;20389;-64
2023/09/16 09:42:51;;;;;;;5.73;4.80;;;23.80;96.30;;;;;;5073883;28;20477;-65
2023/09/16 09:45:19;;;;;;;4.03;3.73;;;24.10;96.10;;;;;;5072420;28;20436;-64
2023/09/16 09:47:46;;;;;;;7.00;4.83;;;24.60;95.10;;;;;;5073225;28;20414;-64
2023/09/16 09:50:14;;;;;;;12.53;8.83;;;25.10;92.90;;;;;;5071943;28;20404;-64
2023/09/16 09:52:54;;;;;;;70.10;37.83;;;25.60;91.80;;;;;;5073509;28;20451;-65
2023/09/16 09:55:29;;;;;;;19.60;11.10;;;26.20;90.10;;;;;;5073132;28;20439;-65
2023/09/16 09:57:55;;;;;;;4.80;2.83;;;26.60;88.70;;;;;;5073373;28;20404;-64
2023/09/16 10:00:22;;;;;;;1.83;1.73;;;26.90;85.80;;;;;;5073350;28;20412;-65
2023/09/16 10:02:48;;;;;;;11.37;9.80;;;26.90;89.40;;;;;;5073318;28;20282;-65
2023/09/16 10:05:16;;;;;;;3.70;3.33;;;27.20;88.50;;;;;;5072867;28;20452;-65
2023/09/16 10:07:43;;;;;;;1.20;1.03;;;27.50;84.70;;;;;;5073370;28;20422;-65
2023/09/16 10:10:20;;;;;;;1.47;1.37;;;27.90;79.80;;;;;;5073347;28;20411;-65
2023/09/16 10:12:47;;;;;;;1.37;1.27;;;27.90;72.70;;;;;;5073044;28;20468;-65
2023/09/16 10:15:13;;;;;;;0.77;0.77;;;28.00;77.90;;;;;;5073048;28;20432;-65
2023/09/16 10:17:43;;;;;;;1.27;1.27;;;27.90;74.60;;;;;;5073096;28;20404;-64
2023/09/16 10:20:11;;;;;;;1.07;1.07;;;27.90;75.20;;;;;;5073222;28;20412;-64
2023/09/16 10:22:41;;;;;;;1.30;1.20;;;27.90;72.40;;;;;;5073041;28;20423;-64
2023/09/16 10:25:08;;;;;;;1.37;1.27;;;27.80;66.70;;;;;;5072557;28;20435;-65
2023/09/16 10:27:40;;;;;;;1.83;1.47;;;27.90;68.90;;;;;;5072878;28;20439;-65
2023/09/16 10:30:07;;;;;;;1.90;1.40;;;27.90;66.50;;;;;;5073047;28;20422;-65
2023/09/16 10:32:34;;;;;;;1.30;1.20;;;28.00;67.00;;;;;;5072832;28;20451;-64
2023/09/16 10:35:03;;;;;;;3.17;1.50;;;28.10;70.30;;;;;;5072490;28;20501;-64
2023/09/16 10:37:29;;;;;;;1.43;1.07;;;28.10;68.60;;;;;;5072646;28;20408;-65
2023/09/16 10:39:56;;;;;;;0.90;0.90;;;28.20;74.60;;;;;;5072611;28;20933;-65
2023/09/16 10:42:22;;;;;;;1.33;1.23;;;28.40;70.10;;;;;;5072633;28;20893;-65
2023/09/16 10:44:48;;;;;;;1.10;1.00;;;28.80;70.10;;;;;;5072558;28;20434;-65
2023/09/16 10:47:17;;;;;;;1.83;1.73;;;29.20;71.30;;;;;;5072314;28;20420;-65
2023/09/16 10:49:46;;;;;;;1.47;1.23;;;29.70;62.50;;;;;;5072427;28;20412;-65
2023/09/16 10:52:16;;;;;;;1.00;1.00;;;29.90;57.70;;;;;;5072280;28;20454;-64
2023/09/16 10:54:57;;;;;;;1.20;1.10;;;29.90;55.20;;;;;;5072761;28;20451;-65
2023/09/16 10:57:30;;;;;;;1.80;1.10;;;29.90;53.50;;;;;;5071589;28;20900;-65
2023/09/16 10:59:59;;;;;;;1.03;0.93;;;29.80;50.30;;;;;;5072331;28;20418;-65
2023/09/16 11:02:42;;;;;;;1.23;1.10;;;29.50;50.80;;;;;;5072587;28;20408;-64
2023/09/16 11:05:08;;;;;;;0.80;0.80;;;29.30;51.00;;;;;;5095066;23;20501;-64
2023/09/16 11:07:35;;;;;;;0.70;0.70;;;29.00;52.50;;;;;;5092206;28;20399;-65
2023/09/16 11:10:03;;;;;;;1.10;1.00;;;28.80;53.10;;;;;;5092219;28;20203;-63
2023/09/16 11:12:31;;;;;;;1.13;0.80;;;28.60;51.50;;;;;;5092001;28;20541;-64
2023/09/16 11:14:57;;;;;;;0.90;0.70;;;28.30;51.40;;;;;;5091933;28;20431;-64
2023/09/16 11:17:23;;;;;;;1.10;1.00;;;28.20;51.40;;;;;;5092247;28;20418;-64
2023/09/16 11:19:48;;;;;;;1.30;1.20;;;28.00;51.10;;;;;;5092044;28;20204;-64
2023/09/16 11:22:14;;;;;;;0.87;0.80;;;27.90;57.40;;;;;;5092011;28;20161;-65
2023/09/16 11:24:41;;;;;;;0.90;0.70;;;27.80;53.80;;;;;;5091912;28;20177;-65
2023/09/16 11:27:07;;;;;;;1.33;0.93;;;27.80;51.90;;;;;;5091652;28;20164;-64
2023/09/16 11:29:32;;;;;;;1.23;1.20;;;27.70;52.00;;;;;;5091888;28;20469;-64
2023/09/16 11:32:00;;;;;;;1.57;1.20;;;27.70;53.20;;;;;;5091537;28;20676;-65
2023/09/16 11:34:27;;;;;;;0.83;0.77;;;27.50;54.10;;;;;;5091801;28;20168;-64
2023/09/16 11:36:58;;;;;;;1.13;1.13;;;27.10;52.90;;;;;;5091319;28;20399;-64
2023/09/16 11:39:43;;;;;;;0.60;0.60;;;26.60;57.70;;;;;;5091775;28;20399;-65
2023/09/16 11:42:10;;;;;;;0.90;0.80;;;26.50;57.50;;;;;;5091598;28;20415;-64
2023/09/16 11:44:37;;;;;;;1.03;0.90;;;26.20;53.00;;;;;;5091529;28;20459;-64
2023/09/16 11:47:03;;;;;;;0.70;0.70;;;25.90;54.60;;;;;;5091361;28;20776;-64
2023/09/16 11:49:36;;;;;;;1.10;1.10;;;25.80;56.20;;;;;;5091749;28;20406;-64
2023/09/16 11:52:02;;;;;;;0.97;0.97;;;25.80;53.10;;;;;;5091456;28;20442;-64
2023/09/16 11:54:28;;;;;;;0.90;0.90;;;25.60;56.30;;;;;;5091455;28;20920;-64
2023/09/16 11:56:54;;;;;;;2.30;1.23;;;25.50;56.30;;;;;;5091105;28;20597;-64
2023/09/16 11:59:20;;;;;;;0.90;0.73;;;25.50;61.10;;;;;;5091482;28;20165;-64
2023/09/16 12:01:48;;;;;;;1.70;1.23;;;25.50;61.70;;;;;;5091324;28;20804;-64
2023/09/16 12:04:15;;;;;;;1.10;1.00;;;25.80;55.60;;;;;;5091400;28;20172;-64
2023/09/16 12:06:41;;;;;;;1.00;0.90;;;26.20;53.20;;;;;;5090854;28;20836;-64
2023/09/16 12:09:10;;;;;;;0.70;0.70;;;26.60;54.80;;;;;;5095426;28;20446;-64
2023/09/16 12:11:38;;;;;;;0.70;0.70;;;26.70;54.20;;;;;;5095410;28;20453;-64
2023/09/16 12:14:06;;;;;;;1.50;1.40;;;26.90;54.80;;;;;;5095547;28;20403;-64
2023/09/16 12:16:32;;;;;;;1.13;1.00;;;27.10;55.80;;;;;;5095211;28;20798;-64
2023/09/16 12:18:58;;;;;;;1.70;1.60;;;27.20;54.50;;;;;;5095463;28;20741;-64
2023/09/16 12:21:24;;;;;;;1.03;0.70;;;27.20;56.90;;;;;;5095357;28;20405;-64
2023/09/16 12:23:51;;;;;;;1.37;1.03;;;26.90;56.90;;;;;;5095271;28;20165;-64
2023/09/16 12:26:18;;;;;;;0.80;0.80;;;26.80;56.50;;;;;;5095065;28;20210;-65
2023/09/16 12:28:44;;;;;;;0.67;0.67;;;27.10;55.50;;;;;;5095412;28;20399;-64
2023/09/16 12:31:11;;;;;;;1.93;1.20;;;27.30;59.90;;;;;;5095181;28;20457;-64
2023/09/16 12:33:48;;;;;;;0.80;0.80;;;27.50;62.80;;;;;;5094856;28;20413;-64
2023/09/16 12:36:19;;;;;;;0.70;0.70;;;27.50;57.30;;;;;;5094665;28;20422;-64
2023/09/16 12:38:46;;;;;;;1.17;0.73;;;27.50;55.50;;;;;;5094954;28;20428;-64
2023/09/16 12:41:13;;;;;;;2.20;1.27;;;27.30;59.90;;;;;;5094862;28;20414;-64
2023/09/16 12:43:39;;;;;;;1.33;1.17;;;27.40;57.20;;;;;;5094991;28;20418;-64